sensor_id;sensor_type;location;lat;lon;timestamp;pressure;altitude;pressure_sealevel;temperature;humidity
9853;BME280;4965;43.238;27.864;2022-07-10T00:02:20;99550.59;;;21.90;100.00
9853;BME280;4965;43.238;27.864;2022-07-10T00:04:46;99541.56;;;21.84;100.00
9853;BME280;4965;43.238;27.864;2022-07-10T00:07:13;99546.06;;;21.97;100.00
9853;BME280;4965;43.238;27.864;2022-07-10T00:09:40;99545.47;;;21.89;100.00
9853;BME280;4965;43.238;27.864;2022-07-10T00:12:08;99546.16;;;21.77;100.00
9853;BME280;4965;43.238;27.864;2022-07-10T00:14:35;99535.81;;;21.74;100.00
9853;BME280;4965;43.238;27.864;2022-07-10T00:17:02;99531.88;;;21.77;100.00
9853;BME280;4965;43.238;27.864;2022-07-10T00:19:29;99556.69;;;21.79;100.00
9853;BME280;4965;43.238;27.864;2022-07-10T00:21:56;99549.00;;;21.82;100.00
9853;BME280;4965;43.238;27.864;2022-07-10T00:24:23;99553.97;;;21.85;100.00
9853;BME280;4965;43.238;27.864;2022-07-10T00:26:50;99536.75;;;21.86;100.00
9853;BME280;4965;43.238;27.864;2022-07-10T00:29:18;99537.38;;;21.89;100.00
9853;BME280;4965;43.238;27.864;2022-07-10T00:31:45;99544.41;;;21.90;100.00
9853;BME280;4965;43.238;27.864;2022-07-10T00:34:13;99529.72;;;21.92;100.00
9853;BME280;4965;43.238;27.864;2022-07-10T00:36:39;99524.97;;;21.88;100.00
9853;BME280;4965;43.238;27.864;2022-07-10T00:39:06;99528.94;;;21.85;100.00
9853;BME280;4965;43.238;27.864;2022-07-10T00:41:33;99522.34;;;21.81;100.00
9853;BME280;4965;43.238;27.864;2022-07-10T00:44:01;99530.03;;;21.77;100.00
9853;BME280;4965;43.238;27.864;2022-07-10T00:46:30;99528.63;;;21.68;100.00
9853;BME280;4965;43.238;27.864;2022-07-10T00:48:57;99551.16;;;21.74;100.00
9853;BME280;4965;43.238;27.864;2022-07-10T00:51:26;99530.59;;;21.48;100.00
9853;BME280;4965;43.238;27.864;2022-07-10T00:53:53;99508.94;;;21.43;100.00
9853;BME280;4965;43.238;27.864;2022-07-10T00:56:23;99539.16;;;21.38;100.00
9853;BME280;4965;43.238;27.864;2022-07-10T00:58:50;99532.75;;;21.33;100.00
9853;BME280;4965;43.238;27.864;2022-07-10T01:01:18;99513.84;;;21.08;100.00
9853;BME280;4965;43.238;27.864;2022-07-10T01:03:46;99546.09;;;21.15;100.00
9853;BME280;4965;43.238;27.864;2022-07-10T01:06:13;99503.53;;;21.12;100.00
9853;BME280;4965;43.238;27.864;2022-07-10T01:08:41;99488.84;;;21.14;100.00
9853;BME280;4965;43.238;27.864;2022-07-10T01:11:08;99500.19;;;21.16;100.00
9853;BME280;4965;43.238;27.864;2022-07-10T01:13:35;99523.38;;;21.04;100.00
9853;BME280;4965;43.238;27.864;2022-07-10T01:16:03;99492.38;;;21.02;100.00
9853;BME280;4965;43.238;27.864;2022-07-10T01:18:30;99489.28;;;20.98;100.00
9853;BME280;4965;43.238;27.864;2022-07-10T01:20:58;99508.34;;;20.90;100.00
9853;BME280;4965;43.238;27.864;2022-07-10T01:23:25;99477.97;;;20.89;100.00
9853;BME280;4965;43.238;27.864;2022-07-10T01:25:52;99495.38;;;20.80;100.00
9853;BME280;4965;43.238;27.864;2022-07-10T01:28:19;99485.44;;;20.81;100.00
9853;BME280;4965;43.238;27.864;2022-07-10T01:30:47;99487.22;;;20.93;100.00
9853;BME280;4965;43.238;27.864;2022-07-10T01:33:14;99477.97;;;20.89;100.00
9853;BME280;4965;43.238;27.864;2022-07-10T01:35:41;99461.84;;;20.89;100.00
9853;BME280;4965;43.238;27.864;2022-07-10T01:38:09;99475.34;;;20.76;100.00
9853;BME280;4965;43.238;27.864;2022-07-10T01:40:36;99446.44;;;20.72;100.00
9853;BME280;4965;43.238;27.864;2022-07-10T01:43:03;99470.81;;;20.77;100.00
9853;BME280;4965;43.238;27.864;2022-07-10T01:45:29;99465.19;;;20.78;100.00
9853;BME280;4965;43.238;27.864;2022-07-10T01:47:56;99461.72;;;20.71;100.00
9853;BME280;4965;43.238;27.864;2022-07-10T01:50:23;99444.81;;;20.64;100.00
9853;BME280;4965;43.238;27.864;2022-07-10T01:52:51;99453.72;;;20.58;100.00
9853;BME280;4965;43.238;27.864;2022-07-10T01:55:19;99452.50;;;20.54;100.00
9853;BME280;4965;43.238;27.864;2022-07-10T01:57:46;99445.47;;;20.53;100.00
9853;BME280;4965;43.238;27.864;2022-07-10T02:00:13;99442.56;;;20.55;100.00
9853;BME280;4965;43.238;27.864;2022-07-10T02:02:40;99465.09;;;20.47;100.00
9853;BME280;4965;43.238;27.864;2022-07-10T02:05:27;99474.00;;;20.41;100.00
9853;BME280;4965;43.238;27.864;2022-07-10T02:07:53;99465.94;;;20.28;100.00
9853;BME280;4965;43.238;27.864;2022-07-10T02:10:21;99459.38;;;20.30;100.00
9853;BME280;4965;43.238;27.864;2022-07-10T02:12:48;99471.53;;;20.33;100.00
9853;BME280;4965;43.238;27.864;2022-07-10T02:15:15;99464.09;;;20.22;100.00
9853;BME280;4965;43.238;27.864;2022-07-10T02:17:42;99466.41;;;20.12;100.00
9853;BME280;4965;43.238;27.864;2022-07-10T02:20:09;99483.50;;;20.17;100.00
9853;BME280;4965;43.238;27.864;2022-07-10T02:22:37;99472.59;;;20.19;100.00
9853;BME280;4965;43.238;27.864;2022-07-10T02:25:05;99483.91;;;20.27;100.00
9853;BME280;4965;43.238;27.864;2022-07-10T02:27:33;99502.50;;;20.35;100.00
9853;BME280;4965;43.238;27.864;2022-07-10T02:30:00;99505.19;;;20.35;100.00
9853;BME280;4965;43.238;27.864;2022-07-10T02:32:27;99522.94;;;20.43;100.00
9853;BME280;4965;43.238;27.864;2022-07-10T02:34:54;99524.19;;;20.40;100.00
9853;BME280;4965;43.238;27.864;2022-07-10T02:37:21;99551.00;;;20.47;100.00
9853;BME280;4965;43.238;27.864;2022-07-10T02:39:47;99556.78;;;20.51;100.00
9853;BME280;4965;43.238;27.864;2022-07-10T02:42:14;99576.00;;;20.61;100.00
9853;BME280;4965;43.238;27.864;2022-07-10T02:44:42;99576.63;;;20.56;100.00
9853;BME280;4965;43.238;27.864;2022-07-10T02:47:10;99568.56;;;20.56;100.00
9853;BME280;4965;43.238;27.864;2022-07-10T02:49:37;99579.72;;;20.60;100.00
9853;BME280;4965;43.238;27.864;2022-07-10T02:52:04;99582.63;;;20.58;100.00
9853;BME280;4965;43.238;27.864;2022-07-10T02:54:31;99583.00;;;20.55;100.00
9853;BME280;4965;43.238;27.864;2022-07-10T02:56:58;99580.97;;;20.57;100.00
9853;BME280;4965;43.238;27.864;2022-07-10T02:59:25;99583.03;;;20.62;100.00
9853;BME280;4965;43.238;27.864;2022-07-10T03:01:53;99572.88;;;20.51;100.00
9853;BME280;4965;43.238;27.864;2022-07-10T03:04:20;99575.56;;;20.51;100.00
9853;BME280;4965;43.238;27.864;2022-07-10T03:06:47;99581.78;;;20.58;100.00
9853;BME280;4965;43.238;27.864;2022-07-10T03:09:13;99577.22;;;20.65;100.00
9853;BME280;4965;43.238;27.864;2022-07-10T03:11:40;99582.38;;;20.60;100.00
9853;BME280;4965;43.238;27.864;2022-07-10T03:14:07;99581.75;;;20.64;100.00
9853;BME280;4965;43.238;27.864;2022-07-10T03:16:34;99580.75;;;20.65;100.00
9853;BME280;4965;43.238;27.864;2022-07-10T03:19:02;99579.94;;;20.58;100.00
9853;BME280;4965;43.238;27.864;2022-07-10T03:21:29;99566.47;;;20.71;100.00
9853;BME280;4965;43.238;27.864;2022-07-10T03:23:56;99578.88;;;20.72;100.00
9853;BME280;4965;43.238;27.864;2022-07-10T03:26:23;99588.31;;;20.81;100.00
9853;BME280;4965;43.238;27.864;2022-07-10T03:28:50;99562.94;;;20.77;100.00
9853;BME280;4965;43.238;27.864;2022-07-10T03:31:17;99569.78;;;20.67;100.00
9853;BME280;4965;43.238;27.864;2022-07-10T03:33:44;99564.34;;;20.86;100.00
9853;BME280;4965;43.238;27.864;2022-07-10T03:36:12;99567.91;;;20.80;100.00
9853;BME280;4965;43.238;27.864;2022-07-10T03:38:39;99561.22;;;21.03;100.00
9853;BME280;4965;43.238;27.864;2022-07-10T03:41:06;99575.03;;;21.13;100.00
9853;BME280;4965;43.238;27.864;2022-07-10T03:43:33;99572.53;;;21.18;100.00
9853;BME280;4965;43.238;27.864;2022-07-10T03:46:00;99571.47;;;21.25;100.00
9853;BME280;4965;43.238;27.864;2022-07-10T03:48:27;99570.34;;;21.46;100.00
9853;BME280;4965;43.238;27.864;2022-07-10T03:50:54;99576.25;;;21.61;100.00
9853;BME280;4965;43.238;27.864;2022-07-10T03:53:22;99578.44;;;21.77;100.00
9853;BME280;4965;43.238;27.864;2022-07-10T03:55:49;99578.22;;;21.79;100.00
9853;BME280;4965;43.238;27.864;2022-07-10T03:58:16;99591.78;;;21.91;100.00
9853;BME280;4965;43.238;27.864;2022-07-10T04:00:42;99584.81;;;22.14;100.00
9853;BME280;4965;43.238;27.864;2022-07-10T04:03:09;99573.88;;;22.09;100.00
9853;BME280;4965;43.238;27.864;2022-07-10T04:05:37;99571.41;;;22.32;100.00
9853;BME280;4965;43.238;27.864;2022-07-10T04:08:04;99565.38;;;22.37;100.00
9853;BME280;4965;43.238;27.864;2022-07-10T04:10:32;99577.41;;;22.35;100.00
9853;BME280;4965;43.238;27.864;2022-07-10T04:12:59;99573.94;;;22.77;100.00
9853;BME280;4965;43.238;27.864;2022-07-10T04:15:26;99579.41;;;22.89;100.00
9853;BME280;4965;43.238;27.864;2022-07-10T04:17:54;99585.38;;;22.91;100.00
9853;BME280;4965;43.238;27.864;2022-07-10T04:20:21;99579.38;;;23.07;100.00
9853;BME280;4965;43.238;27.864;2022-07-10T04:22:49;99566.94;;;23.06;100.00
9853;BME280;4965;43.238;27.864;2022-07-10T04:25:16;99568.06;;;23.35;100.00
9853;BME280;4965;43.238;27.864;2022-07-10T04:27:44;99572.66;;;24.05;100.00
9853;BME280;4965;43.238;27.864;2022-07-10T04:30:11;99567.50;;;25.20;100.00
9853;BME280;4965;43.238;27.864;2022-07-10T04:32:38;99577.56;;;27.15;93.29
9853;BME280;4965;43.238;27.864;2022-07-10T04:35:06;99573.22;;;28.16;84.32
9853;BME280;4965;43.238;27.864;2022-07-10T04:37:33;99576.91;;;28.31;78.54
9853;BME280;4965;43.238;27.864;2022-07-10T04:40:01;99574.72;;;30.10;70.33
9853;BME280;4965;43.238;27.864;2022-07-10T04:42:28;99578.09;;;31.22;59.92
9853;BME280;4965;43.238;27.864;2022-07-10T04:44:56;99583.34;;;31.08;61.08
9853;BME280;4965;43.238;27.864;2022-07-10T04:47:23;99579.84;;;30.82;59.43
9853;BME280;4965;43.238;27.864;2022-07-10T04:49:49;99584.56;;;31.41;57.34
9853;BME280;4965;43.238;27.864;2022-07-10T04:52:16;99567.50;;;31.15;58.84
9853;BME280;4965;43.238;27.864;2022-07-10T04:54:43;99573.88;;;30.24;60.53
9853;BME280;4965;43.238;27.864;2022-07-10T04:57:10;99577.44;;;31.45;56.21
9853;BME280;4965;43.238;27.864;2022-07-10T04:59:37;99587.72;;;32.46;52.21
9853;BME280;4965;43.238;27.864;2022-07-10T05:02:05;99574.88;;;33.23;48.75
9853;BME280;4965;43.238;27.864;2022-07-10T05:04:33;99589.63;;;34.39;44.47
9853;BME280;4965;43.238;27.864;2022-07-10T05:07:00;99587.91;;;33.31;47.28
9853;BME280;4965;43.238;27.864;2022-07-10T05:09:27;99600.78;;;33.91;45.48
9853;BME280;4965;43.238;27.864;2022-07-10T05:11:54;99588.38;;;32.67;47.72
9853;BME280;4965;43.238;27.864;2022-07-10T05:14:21;99585.28;;;34.98;43.40
9853;BME280;4965;43.238;27.864;2022-07-10T05:16:48;99603.63;;;34.56;42.52
9853;BME280;4965;43.238;27.864;2022-07-10T05:19:16;99603.16;;;34.95;42.15
9853;BME280;4965;43.238;27.864;2022-07-10T05:21:43;99613.97;;;35.46;40.00
9853;BME280;4965;43.238;27.864;2022-07-10T05:24:10;99623.16;;;33.98;41.56
9853;BME280;4965;43.238;27.864;2022-07-10T05:26:37;99613.41;;;33.92;43.21
9853;BME280;4965;43.238;27.864;2022-07-10T05:29:03;99628.88;;;34.72;40.92
9853;BME280;4965;43.238;27.864;2022-07-10T05:31:30;99622.13;;;33.10;44.65
9853;BME280;4965;43.238;27.864;2022-07-10T05:33:57;99621.22;;;33.62;45.35
9853;BME280;4965;43.238;27.864;2022-07-10T05:36:25;99610.34;;;34.13;45.17
9853;BME280;4965;43.238;27.864;2022-07-10T05:38:53;99626.03;;;34.77;42.74
9853;BME280;4965;43.238;27.864;2022-07-10T05:41:19;99637.47;;;36.15;39.22
9853;BME280;4965;43.238;27.864;2022-07-10T05:43:46;99637.09;;;36.75;37.15
9853;BME280;4965;43.238;27.864;2022-07-10T05:46:13;99644.63;;;35.40;38.86
9853;BME280;4965;43.238;27.864;2022-07-10T05:48:40;99646.13;;;34.91;38.46
9853;BME280;4965;43.238;27.864;2022-07-10T05:51:07;99648.34;;;35.84;37.98
9853;BME280;4965;43.238;27.864;2022-07-10T05:53:35;99640.34;;;34.41;39.21
9853;BME280;4965;43.238;27.864;2022-07-10T05:56:04;99624.19;;;35.32;37.81
9853;BME280;4965;43.238;27.864;2022-07-10T05:58:31;99628.53;;;33.47;42.64
9853;BME280;4965;43.238;27.864;2022-07-10T06:00:58;99622.22;;;32.99;45.23
9853;BME280;4965;43.238;27.864;2022-07-10T06:03:27;99621.97;;;34.42;44.01
9853;BME280;4965;43.238;27.864;2022-07-10T06:05:55;99618.50;;;34.69;42.67
9853;BME280;4965;43.238;27.864;2022-07-10T06:08:22;99626.44;;;34.70;40.41
9853;BME280;4965;43.238;27.864;2022-07-10T06:10:50;99616.16;;;33.92;43.38
9853;BME280;4965;43.238;27.864;2022-07-10T06:13:17;99620.53;;;33.51;44.55
9853;BME280;4965;43.238;27.864;2022-07-10T06:15:43;99616.19;;;34.57;42.91
9853;BME280;4965;43.238;27.864;2022-07-10T06:18:10;99609.19;;;34.97;40.77
9853;BME280;4965;43.238;27.864;2022-07-10T06:20:37;99615.09;;;33.88;41.88
9853;BME280;4965;43.238;27.864;2022-07-10T06:23:05;99625.28;;;33.22;42.94
9853;BME280;4965;43.238;27.864;2022-07-10T06:25:32;99607.19;;;32.97;44.49
9853;BME280;4965;43.238;27.864;2022-07-10T06:28:00;99606.84;;;33.03;44.34
9853;BME280;4965;43.238;27.864;2022-07-10T06:30:30;99610.69;;;32.16;47.76
9853;BME280;4965;43.238;27.864;2022-07-10T06:32:57;99618.63;;;32.75;45.55
9853;BME280;4965;43.238;27.864;2022-07-10T06:35:24;99615.97;;;31.97;46.31
9853;BME280;4965;43.238;27.864;2022-07-10T06:37:51;99612.63;;;30.52;51.51
9853;BME280;4965;43.238;27.864;2022-07-10T06:40:20;99613.47;;;31.57;49.53
9853;BME280;4965;43.238;27.864;2022-07-10T06:42:47;99615.91;;;32.75;46.66
9853;BME280;4965;43.238;27.864;2022-07-10T06:45:15;99605.97;;;33.08;45.70
9853;BME280;4965;43.238;27.864;2022-07-10T06:47:42;99619.69;;;30.78;53.84
9853;BME280;4965;43.238;27.864;2022-07-10T06:50:26;99612.84;;;30.86;52.62
9853;BME280;4965;43.238;27.864;2022-07-10T06:52:55;99608.84;;;30.43;52.50
9853;BME280;4965;43.238;27.864;2022-07-10T06:55:22;99605.53;;;30.10;50.97
9853;BME280;4965;43.238;27.864;2022-07-10T06:57:49;99596.19;;;29.04;55.67
9853;BME280;4965;43.238;27.864;2022-07-10T07:00:18;99610.63;;;29.09;56.62
9853;BME280;4965;43.238;27.864;2022-07-10T07:02:46;99613.56;;;29.60;55.12
9853;BME280;4965;43.238;27.864;2022-07-10T07:05:13;99620.97;;;29.74;52.77
9853;BME280;4965;43.238;27.864;2022-07-10T07:07:40;99612.88;;;28.75;55.75
9853;BME280;4965;43.238;27.864;2022-07-10T07:10:08;99608.50;;;28.37;58.45
9853;BME280;4965;43.238;27.864;2022-07-10T07:12:38;99604.84;;;28.59;58.27
9853;BME280;4965;43.238;27.864;2022-07-10T07:15:44;99604.19;;;28.47;59.26
9853;BME280;4965;43.238;27.864;2022-07-10T07:18:19;99617.38;;;28.28;59.26
9853;BME280;4965;43.238;27.864;2022-07-10T07:20:47;99597.72;;;28.53;60.65
9853;BME280;4965;43.238;27.864;2022-07-10T07:23:32;99609.75;;;28.25;65.39
9853;BME280;4965;43.238;27.864;2022-07-10T07:26:00;99619.50;;;28.53;61.44
9853;BME280;4965;43.238;27.864;2022-07-10T07:28:30;99616.69;;;28.11;59.64
9853;BME280;4965;43.238;27.864;2022-07-10T07:31:01;99607.78;;;27.93;60.79
9853;BME280;4965;43.238;27.864;2022-07-10T07:33:29;99620.16;;;27.58;65.47
9853;BME280;4965;43.238;27.864;2022-07-10T07:35:58;99602.72;;;27.49;65.68
9853;BME280;4965;43.238;27.864;2022-07-10T07:38:26;99618.25;;;27.53;67.02
9853;BME280;4965;43.238;27.864;2022-07-10T07:44:32;99618.13;;;27.70;69.44
9853;BME280;4965;43.238;27.864;2022-07-10T07:54:34;99596.03;;;27.61;73.63
9853;BME280;4965;43.238;27.864;2022-07-10T07:57:35;99608.28;;;28.44;72.30
9853;BME280;4965;43.238;27.864;2022-07-10T08:12:15;99594.47;;;28.56;72.98
9853;BME280;4965;43.238;27.864;2022-07-10T08:15:54;99603.06;;;28.37;74.39
9853;BME280;4965;43.238;27.864;2022-07-10T08:28:06;99610.50;;;29.36;68.77
9853;BME280;4965;43.238;27.864;2022-07-10T08:36:44;99620.25;;;28.85;75.86
9853;BME280;4965;43.238;27.864;2022-07-10T08:39:13;99620.72;;;29.14;70.46
9853;BME280;4965;43.238;27.864;2022-07-10T08:41:42;99619.34;;;29.16;70.88
9853;BME280;4965;43.238;27.864;2022-07-10T08:44:13;99615.72;;;29.43;69.52
9853;BME280;4965;43.238;27.864;2022-07-10T08:46:40;99625.78;;;29.42;68.34
9853;BME280;4965;43.238;27.864;2022-07-10T08:49:18;99622.19;;;28.84;69.98
9853;BME280;4965;43.238;27.864;2022-07-10T08:55:12;99623.63;;;28.60;70.79
9853;BME280;4965;43.238;27.864;2022-07-10T08:57:55;99621.53;;;29.14;68.89
9853;BME280;4965;43.238;27.864;2022-07-10T09:00:54;99632.88;;;28.96;66.64
9853;BME280;4965;43.238;27.864;2022-07-10T09:04:01;99632.63;;;28.29;72.69
9853;BME280;4965;43.238;27.864;2022-07-10T09:36:33;99600.88;;;28.34;71.69
9853;BME280;4965;43.238;27.864;2022-07-10T09:39:14;99598.00;;;28.88;70.69
9853;BME280;4965;43.238;27.864;2022-07-10T09:41:41;99594.72;;;29.43;66.35
9853;BME280;4965;43.238;27.864;2022-07-10T09:44:08;99589.84;;;29.45;62.70
9853;BME280;4965;43.238;27.864;2022-07-10T09:46:37;99593.72;;;29.02;65.60
9853;BME280;4965;43.238;27.864;2022-07-10T09:52:08;99587.97;;;28.99;65.75
9853;BME280;4965;43.238;27.864;2022-07-10T09:54:36;99585.78;;;29.53;62.00
9853;BME280;4965;43.238;27.864;2022-07-10T09:57:04;99587.94;;;29.46;63.50
9853;BME280;4965;43.238;27.864;2022-07-10T09:59:34;99575.94;;;29.42;63.22
9853;BME280;4965;43.238;27.864;2022-07-10T10:02:03;99584.03;;;29.26;63.79
9853;BME280;4965;43.238;27.864;2022-07-10T10:04:33;99589.06;;;29.65;62.26
9853;BME280;4965;43.238;27.864;2022-07-10T10:13:29;99566.94;;;28.42;69.40
9853;BME280;4965;43.238;27.864;2022-07-10T10:16:01;99581.00;;;28.71;65.45
9853;BME280;4965;43.238;27.864;2022-07-10T10:18:36;99562.66;;;28.98;64.62
9853;BME280;4965;43.238;27.864;2022-07-10T10:21:24;99565.53;;;29.28;63.75
9853;BME280;4965;43.238;27.864;2022-07-10T10:23:51;99576.00;;;29.62;56.97
9853;BME280;4965;43.238;27.864;2022-07-10T10:26:18;99574.91;;;29.78;58.61
9853;BME280;4965;43.238;27.864;2022-07-10T10:28:49;99572.16;;;29.53;59.96
9853;BME280;4965;43.238;27.864;2022-07-10T10:31:16;99579.78;;;29.56;59.46
9853;BME280;4965;43.238;27.864;2022-07-10T10:33:45;99572.72;;;29.70;60.33
9853;BME280;4965;43.238;27.864;2022-07-10T10:36:14;99565.59;;;29.49;58.95
9853;BME280;4965;43.238;27.864;2022-07-10T10:38:59;99579.91;;;30.11;57.49
9853;BME280;4965;43.238;27.864;2022-07-10T10:41:28;99568.97;;;29.86;54.51
9853;BME280;4965;43.238;27.864;2022-07-10T10:44:29;99575.13;;;28.84;56.67
9853;BME280;4965;43.238;27.864;2022-07-10T10:47:10;99580.09;;;29.02;55.23
9853;BME280;4965;43.238;27.864;2022-07-10T10:49:55;99571.63;;;29.61;53.02
9853;BME280;4965;43.238;27.864;2022-07-10T10:52:27;99574.41;;;29.86;50.79
9853;BME280;4965;43.238;27.864;2022-07-10T10:55:02;99580.72;;;29.92;50.75
9853;BME280;4965;43.238;27.864;2022-07-10T10:57:40;99580.44;;;30.13;50.33
9853;BME280;4965;43.238;27.864;2022-07-10T11:00:33;99575.00;;;30.18;50.52
9853;BME280;4965;43.238;27.864;2022-07-10T11:03:20;99574.69;;;29.90;50.10
9853;BME280;4965;43.238;27.864;2022-07-10T11:05:48;99576.56;;;29.69;53.13
9853;BME280;4965;43.238;27.864;2022-07-10T11:08:40;99580.44;;;29.98;52.44
9853;BME280;4965;43.238;27.864;2022-07-10T11:11:36;99570.06;;;30.20;51.41
9853;BME280;4965;43.238;27.864;2022-07-10T11:14:05;99560.81;;;30.01;53.94
9853;BME280;4965;43.238;27.864;2022-07-10T11:16:34;99568.97;;;30.42;51.09
9853;BME280;4965;43.238;27.864;2022-07-10T11:19:01;99557.53;;;30.30;50.90
9853;BME280;4965;43.238;27.864;2022-07-10T11:21:37;99568.16;;;30.21;49.82
9853;BME280;4965;43.238;27.864;2022-07-10T11:24:20;99556.19;;;30.17;51.07
9853;BME280;4965;43.238;27.864;2022-07-10T11:26:58;99561.50;;;30.98;48.32
9853;BME280;4965;43.238;27.864;2022-07-10T11:29:36;99568.13;;;30.71;49.38
9853;BME280;4965;43.238;27.864;2022-07-10T11:32:05;99558.63;;;30.44;49.00
9853;BME280;4965;43.238;27.864;2022-07-10T11:34:34;99560.81;;;30.21;49.80
9853;BME280;4965;43.238;27.864;2022-07-10T11:37:02;99560.81;;;30.52;49.06
9853;BME280;4965;43.238;27.864;2022-07-10T11:39:29;99554.81;;;29.99;49.37
9853;BME280;4965;43.238;27.864;2022-07-10T11:41:56;99569.28;;;30.15;49.98
9853;BME280;4965;43.238;27.864;2022-07-10T11:44:22;99566.00;;;30.33;47.91
9853;BME280;4965;43.238;27.864;2022-07-10T11:46:51;99556.69;;;29.73;51.30
9853;BME280;4965;43.238;27.864;2022-07-10T11:49:21;99568.91;;;29.71;52.01
9853;BME280;4965;43.238;27.864;2022-07-10T11:51:48;99575.38;;;29.35;49.44
9853;BME280;4965;43.238;27.864;2022-07-10T11:54:16;99559.75;;;29.20;50.13
9853;BME280;4965;43.238;27.864;2022-07-10T11:56:47;99554.94;;;29.32;49.53
9853;BME280;4965;43.238;27.864;2022-07-10T11:59:15;99559.09;;;29.50;49.20
9853;BME280;4965;43.238;27.864;2022-07-10T12:01:44;99567.91;;;30.27;46.77
9853;BME280;4965;43.238;27.864;2022-07-10T12:04:12;99568.16;;;29.91;46.75
9853;BME280;4965;43.238;27.864;2022-07-10T12:06:42;99566.25;;;29.86;47.43
9853;BME280;4965;43.238;27.864;2022-07-10T12:09:11;99555.34;;;29.81;48.48
9853;BME280;4965;43.238;27.864;2022-07-10T12:11:39;99554.81;;;30.09;46.85
9853;BME280;4965;43.238;27.864;2022-07-10T12:14:12;99559.53;;;29.26;48.80
9853;BME280;4965;43.238;27.864;2022-07-10T12:16:43;99559.47;;;29.11;50.58
9853;BME280;4965;43.238;27.864;2022-07-10T12:19:12;99569.72;;;29.66;50.63
9853;BME280;4965;43.238;27.864;2022-07-10T12:21:42;99554.75;;;29.74;50.12
9853;BME280;4965;43.238;27.864;2022-07-10T12:24:09;99571.72;;;30.37;49.23
9853;BME280;4965;43.238;27.864;2022-07-10T12:26:38;99553.75;;;30.46;46.77
9853;BME280;4965;43.238;27.864;2022-07-10T12:29:11;99554.81;;;29.94;47.67
9853;BME280;4965;43.238;27.864;2022-07-10T12:31:38;99558.34;;;30.10;47.65
9853;BME280;4965;43.238;27.864;2022-07-10T12:34:05;99557.78;;;30.68;45.93
9853;BME280;4965;43.238;27.864;2022-07-10T12:36:45;99557.81;;;30.18;46.02
9853;BME280;4965;43.238;27.864;2022-07-10T12:39:13;99564.00;;;29.58;46.94
9853;BME280;4965;43.238;27.864;2022-07-10T12:41:58;99559.72;;;30.02;46.94
9853;BME280;4965;43.238;27.864;2022-07-10T12:44:39;99552.50;;;29.41;48.13
9853;BME280;4965;43.238;27.864;2022-07-10T12:50:11;99554.22;;;29.82;46.92
9853;BME280;4965;43.238;27.864;2022-07-10T12:52:40;99541.91;;;29.54;47.84
9853;BME280;4965;43.238;27.864;2022-07-10T12:55:09;99545.56;;;29.13;48.57
9853;BME280;4965;43.238;27.864;2022-07-10T12:57:49;99544.41;;;29.71;47.04
9853;BME280;4965;43.238;27.864;2022-07-10T13:00:17;99540.28;;;29.58;47.09
9853;BME280;4965;43.238;27.864;2022-07-10T13:02:45;99541.38;;;29.42;47.97
9853;BME280;4965;43.238;27.864;2022-07-10T13:05:25;99535.09;;;29.47;46.86
9853;BME280;4965;43.238;27.864;2022-07-10T13:08:04;99534.28;;;29.46;46.77
9853;BME280;4965;43.238;27.864;2022-07-10T13:10:32;99540.03;;;29.70;46.73
9853;BME280;4965;43.238;27.864;2022-07-10T13:12:59;99539.97;;;29.35;48.89
9853;BME280;4965;43.238;27.864;2022-07-10T13:15:27;99540.97;;;29.13;45.72
9853;BME280;4965;43.238;27.864;2022-07-10T13:17:55;99534.47;;;29.19;46.48
9853;BME280;4965;43.238;27.864;2022-07-10T13:20:22;99540.97;;;29.13;47.81
9853;BME280;4965;43.238;27.864;2022-07-10T13:22:48;99524.44;;;29.35;46.45
9853;BME280;4965;43.238;27.864;2022-07-10T13:25:17;99524.53;;;29.65;46.45
9853;BME280;4965;43.238;27.864;2022-07-10T13:27:44;99521.78;;;30.36;43.66
9853;BME280;4965;43.238;27.864;2022-07-10T13:30:12;99525.91;;;30.08;44.67
9853;BME280;4965;43.238;27.864;2022-07-10T13:32:39;99524.81;;;29.84;43.86
9853;BME280;4965;43.238;27.864;2022-07-10T13:35:06;99526.72;;;30.44;43.88
9853;BME280;4965;43.238;27.864;2022-07-10T13:37:33;99531.88;;;30.36;43.18
9853;BME280;4965;43.238;27.864;2022-07-10T13:40:00;99524.25;;;30.33;43.32
9853;BME280;4965;43.238;27.864;2022-07-10T13:42:28;99534.06;;;30.28;43.33
9853;BME280;4965;43.238;27.864;2022-07-10T13:44:55;99537.81;;;29.47;44.61
9853;BME280;4965;43.238;27.864;2022-07-10T13:47:22;99537.56;;;29.58;44.85
9853;BME280;4965;43.238;27.864;2022-07-10T13:49:49;99537.59;;;29.84;44.06
9853;BME280;4965;43.238;27.864;2022-07-10T13:52:16;99536.78;;;29.78;43.70
9853;BME280;4965;43.238;27.864;2022-07-10T13:54:43;99537.25;;;29.35;45.38
9853;BME280;4965;43.238;27.864;2022-07-10T13:57:10;99542.19;;;29.48;44.46
9853;BME280;4965;43.238;27.864;2022-07-10T13:59:38;99538.91;;;29.51;44.47
9853;BME280;4965;43.238;27.864;2022-07-10T14:02:05;99528.53;;;29.38;45.05
9853;BME280;4965;43.238;27.864;2022-07-10T14:04:32;99536.22;;;29.56;44.97
9853;BME280;4965;43.238;27.864;2022-07-10T14:06:59;99530.69;;;29.36;46.09
9853;BME280;4965;43.238;27.864;2022-07-10T14:09:26;99531.56;;;29.51;46.67
9853;BME280;4965;43.238;27.864;2022-07-10T14:11:54;99530.81;;;29.86;46.36
9853;BME280;4965;43.238;27.864;2022-07-10T14:14:21;99521.28;;;29.99;45.82
9853;BME280;4965;43.238;27.864;2022-07-10T14:16:50;99522.03;;;29.59;47.58
9853;BME280;4965;43.238;27.864;2022-07-10T14:19:17;99527.78;;;29.57;47.67
9853;BME280;4965;43.238;27.864;2022-07-10T14:21:43;99523.41;;;29.56;47.46
9853;BME280;4965;43.238;27.864;2022-07-10T14:24:11;99519.91;;;29.81;47.41
9853;BME280;4965;43.238;27.864;2022-07-10T14:26:38;99526.91;;;29.47;47.84
9853;BME280;4965;43.238;27.864;2022-07-10T14:29:05;99522.28;;;29.37;49.51
9853;BME280;4965;43.238;27.864;2022-07-10T14:31:32;99523.16;;;29.73;47.50
9853;BME280;4965;43.238;27.864;2022-07-10T14:34:01;99528.88;;;29.61;47.41
9853;BME280;4965;43.238;27.864;2022-07-10T14:36:29;99528.34;;;29.69;47.16
9853;BME280;4965;43.238;27.864;2022-07-10T14:38:56;99530.16;;;29.28;48.57
9853;BME280;4965;43.238;27.864;2022-07-10T14:41:24;99524.59;;;29.08;48.55
9853;BME280;4965;43.238;27.864;2022-07-10T14:43:51;99520.78;;;29.09;48.82
9853;BME280;4965;43.238;27.864;2022-07-10T14:46:18;99525.09;;;29.00;48.90